createdAt,value
2017-10-13T00:02:04.517Z,83.53
2017-10-13T00:04:32.826Z,83.92
2017-10-13T00:07:01.130Z,84.08
2017-10-13T00:09:30.215Z,84.13
2017-10-13T00:11:59.298Z,84.20
2017-10-13T00:14:27.638Z,84.40
2017-10-13T00:16:55.961Z,84.60
2017-10-13T00:19:25.042Z,84.63
2017-10-13T00:21:53.357Z,85.18
2017-10-13T00:24:21.671Z,85.35
2017-10-13T00:26:50.026Z,85.27
2017-10-13T00:29:18.346Z,85.29
2017-10-13T00:31:46.669Z,85.05
2017-10-13T00:34:14.998Z,85.13
2017-10-13T00:36:43.306Z,85.08
2017-10-13T00:39:12.411Z,85.01
2017-10-13T00:41:41.502Z,85.08
2017-10-13T00:44:10.581Z,85.46
2017-10-13T00:46:38.893Z,85.21
2017-10-13T00:49:07.193Z,85.20
2017-10-13T00:51:35.554Z,85.28
2017-10-13T00:54:03.861Z,85.65
2017-10-13T00:56:32.175Z,85.87
2017-10-13T00:59:01.251Z,85.85
2017-10-13T01:01:29.546Z,85.70
2017-10-13T01:03:58.633Z,85.82
2017-10-13T01:06:26.923Z,85.90
2017-10-13T01:08:55.994Z,86.00
2017-10-13T01:11:24.314Z,86.68
2017-10-13T01:13:52.620Z,86.54
2017-10-13T01:16:20.953Z,86.22
2017-10-13T01:18:50.024Z,86.63
2017-10-13T01:21:18.322Z,87.31
2017-10-13T01:23:47.403Z,87.10
2017-10-13T01:26:15.710Z,86.52
2017-10-13T01:28:44.049Z,86.74
2017-10-13T01:31:12.341Z,86.93
2017-10-13T01:33:41.417Z,86.73
2017-10-13T01:36:09.723Z,86.64
2017-10-13T01:38:38.038Z,86.72
2017-10-13T01:41:06.353Z,86.91
2017-10-13T01:43:34.653Z,86.72
2017-10-13T01:46:03.714Z,87.05
2017-10-13T01:48:32.018Z,87.01
2017-10-13T01:51:01.082Z,87.24
2017-10-13T01:53:29.430Z,87.35
2017-10-13T01:55:57.730Z,87.71
2017-10-13T01:58:26.025Z,87.91
2017-10-13T02:00:54.341Z,87.92
2017-10-13T02:03:22.630Z,88.17
2017-10-13T02:05:50.961Z,88.06
2017-10-13T02:08:19.261Z,88.03
2017-10-13T02:10:47.562Z,88.07
2017-10-13T02:13:15.881Z,87.68
2017-10-13T02:15:44.186Z,87.02
2017-10-13T02:18:13.281Z,86.69
2017-10-13T02:20:42.339Z,86.64
2017-10-13T02:23:10.641Z,86.03
2017-10-13T02:25:38.972Z,85.25
2017-10-13T02:28:07.278Z,85.33
2017-10-13T02:30:35.610Z,85.26
2017-10-13T02:33:03.910Z,85.33
2017-10-13T02:35:32.201Z,85.50
2017-10-13T02:38:00.555Z,85.72
2017-10-13T02:40:28.855Z,85.06
2017-10-13T02:42:57.186Z,84.83
2017-10-13T02:45:26.247Z,85.34
2017-10-13T02:47:54.550Z,85.39
2017-10-13T02:50:23.627Z,84.99
2017-10-13T02:52:51.921Z,85.08
2017-10-13T02:55:21.018Z,84.96
2017-10-13T02:57:50.082Z,84.95
2017-10-13T03:00:18.439Z,84.70
2017-10-13T03:02:46.749Z,84.31
2017-10-13T03:05:15.041Z,84.47
2017-10-13T03:07:44.147Z,84.39
2017-10-13T03:10:13.236Z,84.08
2017-10-13T03:12:42.310Z,83.99
2017-10-13T03:15:10.630Z,84.18
2017-10-13T03:17:38.938Z,83.84
2017-10-13T03:20:07.295Z,83.90
2017-10-13T03:22:35.605Z,83.52
2017-10-13T03:25:03.917Z,83.97
2017-10-13T03:27:33.014Z,83.88
2017-10-13T03:30:02.081Z,83.62
2017-10-13T03:32:31.201Z,83.38
2017-10-13T03:35:00.281Z,83.17
2017-10-13T03:37:28.665Z,83.11
2017-10-13T03:39:56.999Z,83.05
2017-10-13T03:42:25.366Z,82.82
2017-10-13T03:44:53.697Z,82.71
2017-10-13T03:47:22.779Z,82.24
2017-10-13T03:49:51.115Z,82.16
2017-10-13T03:52:19.446Z,82.35
2017-10-13T03:54:47.760Z,82.31
2017-10-13T03:57:16.965Z,82.26
2017-10-13T03:59:47.578Z,81.97
2017-10-13T04:02:15.882Z,82.08
2017-10-13T04:04:44.194Z,81.89
2017-10-13T04:07:12.493Z,81.76
2017-10-13T04:09:41.605Z,82.14
2017-10-13T04:12:10.678Z,82.18
2017-10-13T04:14:38.999Z,82.28
2017-10-13T04:17:07.311Z,82.20
2017-10-13T04:19:35.619Z,82.16
2017-10-13T04:22:04.743Z,82.42
2017-10-13T04:24:33.066Z,82.72
2017-10-13T04:27:01.397Z,83.03
2017-10-13T04:29:29.707Z,83.11
2017-10-13T04:31:58.019Z,83.30
2017-10-13T04:34:27.148Z,83.41
2017-10-13T04:36:55.458Z,83.47
2017-10-13T04:39:23.792Z,83.58
2017-10-13T04:41:52.105Z,83.91
2017-10-13T04:44:20.407Z,83.94
2017-10-13T04:46:48.775Z,83.80
2017-10-13T04:49:17.078Z,83.57
2017-10-13T04:51:45.500Z,83.63
2017-10-13T04:54:13.811Z,83.43
2017-10-13T04:56:42.134Z,83.37
2017-10-13T04:59:10.475Z,83.31
2017-10-13T05:01:38.801Z,82.98
2017-10-13T05:04:07.110Z,83.07
2017-10-13T05:06:35.422Z,83.16
2017-10-13T05:09:04.540Z,83.52
2017-10-13T05:11:32.877Z,83.68
2017-10-13T05:14:01.200Z,83.44
2017-10-13T05:16:29.518Z,83.59
2017-10-13T05:18:57.862Z,83.75
2017-10-13T05:21:26.170Z,83.79
2017-10-13T05:23:54.508Z,83.94
2017-10-13T05:26:22.819Z,83.72
2017-10-13T05:28:51.127Z,83.72
2017-10-13T05:31:19.450Z,83.72
2017-10-13T05:33:47.763Z,83.78
2017-10-13T05:36:16.124Z,83.50
2017-10-13T05:38:44.993Z,83.62
2017-10-13T05:41:13.304Z,83.84
2017-10-13T05:43:41.642Z,83.81
2017-10-13T05:46:09.941Z,83.59
2017-10-13T05:48:38.281Z,83.57
2017-10-13T05:51:07.359Z,83.60
2017-10-13T05:53:35.710Z,83.21
2017-10-13T05:56:04.041Z,83.30
2017-10-13T05:58:33.359Z,83.09
2017-10-13T06:01:01.690Z,82.96
2017-10-13T06:03:30.016Z,82.75
2017-10-13T06:05:58.335Z,82.56
2017-10-13T06:08:26.674Z,82.55
2017-10-13T06:10:54.977Z,82.46
2017-10-13T06:13:23.322Z,82.21
2017-10-13T06:15:51.634Z,82.40
2017-10-13T06:18:19.963Z,82.27
2017-10-13T06:20:48.281Z,81.76
2017-10-13T06:23:16.594Z,81.54
2017-10-13T06:25:45.327Z,81.38
2017-10-13T06:28:13.630Z,81.37
2017-10-13T06:30:41.962Z,81.55
2017-10-13T06:33:10.284Z,81.05
2017-10-13T06:35:38.608Z,80.87
2017-10-13T06:38:07.740Z,80.78
2017-10-13T06:40:36.046Z,79.82
2017-10-13T06:43:04.357Z,79.49
2017-10-13T06:45:33.446Z,79.29
2017-10-13T06:48:02.510Z,78.44
2017-10-13T06:50:30.846Z,77.84
2017-10-13T06:52:59.155Z,77.41
2017-10-13T06:55:27.482Z,77.45
2017-10-13T06:57:55.805Z,77.01
2017-10-13T07:00:24.131Z,76.51
2017-10-13T07:02:53.237Z,76.72
2017-10-13T07:05:22.322Z,76.99
2017-10-13T07:07:51.404Z,76.47
2017-10-13T07:10:19.727Z,75.97
2017-10-13T07:12:48.034Z,75.75
2017-10-13T07:15:16.378Z,75.71
2017-10-13T07:17:44.678Z,75.44
2017-10-13T07:20:12.992Z,75.52
2017-10-13T07:22:41.318Z,75.07
2017-10-13T07:25:09.694Z,74.01
2017-10-13T07:27:38.051Z,74.13
2017-10-13T07:30:06.363Z,74.74
2017-10-13T07:32:34.689Z,73.95
2017-10-13T07:35:03.785Z,73.57
2017-10-13T07:37:32.873Z,72.79
2017-10-13T07:40:01.209Z,73.48
2017-10-13T07:42:29.514Z,73.37
2017-10-13T07:44:57.809Z,72.88
2017-10-13T07:47:26.897Z,72.19
2017-10-13T07:49:55.201Z,72.39
2017-10-13T07:52:23.546Z,71.04
2017-10-13T07:54:51.854Z,70.96
2017-10-13T07:57:20.158Z,70.69
2017-10-13T07:59:48.531Z,70.02
2017-10-13T08:02:16.845Z,69.92
2017-10-13T08:04:45.183Z,70.44
2017-10-13T08:07:13.489Z,70.53
2017-10-13T08:09:41.797Z,69.33
2017-10-13T08:12:10.879Z,69.77
2017-10-13T08:14:39.211Z,68.66
2017-10-13T08:17:07.566Z,68.17
2017-10-13T08:19:36.653Z,67.37
2017-10-13T08:22:05.737Z,66.74
2017-10-13T08:24:34.073Z,67.33
2017-10-13T08:27:02.384Z,66.43
2017-10-13T08:29:30.718Z,67.42
2017-10-13T08:31:59.026Z,68.66
2017-10-13T08:34:27.337Z,67.84
2017-10-13T08:36:56.409Z,67.16
2017-10-13T08:39:24.712Z,65.95
2017-10-13T08:41:53.822Z,67.34
2017-10-13T08:44:22.136Z,66.18
2017-10-13T08:46:50.459Z,66.43
2017-10-13T08:49:19.039Z,66.07
2017-10-13T08:51:48.113Z,64.44
2017-10-13T08:54:16.455Z,62.39
2017-10-13T08:56:44.775Z,62.05
2017-10-13T08:59:13.081Z,60.53
2017-10-13T09:01:42.158Z,60.30
2017-10-13T09:04:11.245Z,60.95
2017-10-13T09:06:40.370Z,61.75
2017-10-13T09:09:08.688Z,58.60
2017-10-13T09:11:36.998Z,57.99
2017-10-13T09:14:05.313Z,57.00
2017-10-13T09:16:33.638Z,59.44
2017-10-13T09:19:01.991Z,58.80
2017-10-13T09:21:30.300Z,53.28
2017-10-13T09:23:58.611Z,51.20
2017-10-13T09:26:26.935Z,52.65
2017-10-13T09:28:55.254Z,54.09
2017-10-13T09:31:24.367Z,51.96
2017-10-13T09:33:52.686Z,53.28
2017-10-13T09:36:21.002Z,56.22
2017-10-13T09:38:50.086Z,55.16
2017-10-13T09:41:18.403Z,58.60
2017-10-13T09:43:46.787Z,55.55
2017-10-13T09:46:15.107Z,52.34
2017-10-13T09:48:43.410Z,52.47
2017-10-13T09:51:12.490Z,51.87
2017-10-13T09:53:40.811Z,56.37
2017-10-13T09:56:09.186Z,48.29
2017-10-13T09:58:37.494Z,50.85
2017-10-13T10:01:05.804Z,52.25
2017-10-13T10:03:34.126Z,50.35
2017-10-13T10:06:02.427Z,51.29
2017-10-13T10:08:30.772Z,53.85
2017-10-13T10:10:59.087Z,52.94
2017-10-13T10:13:27.413Z,54.09
2017-10-13T10:15:56.494Z,56.11
2017-10-13T10:18:25.561Z,56.99
2017-10-13T10:20:53.907Z,57.86
2017-10-13T10:23:22.213Z,57.07
2017-10-13T10:25:50.521Z,59.03
2017-10-13T10:28:19.608Z,60.46
2017-10-13T10:30:47.926Z,61.25
2017-10-13T10:33:16.278Z,59.69
2017-10-13T10:35:45.367Z,59.58
2017-10-13T10:38:14.445Z,57.66
2017-10-13T10:40:42.778Z,57.62
2017-10-13T10:43:11.134Z,56.76
2017-10-13T10:45:40.241Z,56.15
2017-10-13T10:48:08.566Z,57.13
2017-10-13T10:50:36.878Z,56.59
2017-10-13T10:53:05.961Z,57.57
2017-10-13T10:55:35.048Z,56.73
2017-10-13T10:58:04.141Z,57.78
2017-10-13T11:00:32.450Z,57.93
2017-10-13T11:03:00.779Z,57.71
2017-10-13T11:05:29.083Z,56.35
2017-10-13T11:07:58.162Z,56.88
2017-10-13T11:10:26.470Z,57.39
2017-10-13T11:12:55.554Z,57.88
2017-10-13T11:15:24.627Z,57.60
2017-10-13T11:17:52.991Z,56.43
2017-10-13T11:20:21.307Z,54.90
2017-10-13T11:22:50.386Z,54.21
2017-10-13T11:25:19.478Z,54.51
2017-10-13T11:27:47.796Z,55.44
2017-10-13T11:30:16.114Z,56.39
2017-10-13T11:32:45.206Z,56.71
2017-10-13T11:35:13.522Z,57.53
2017-10-13T11:37:42.593Z,58.14
2017-10-13T11:40:10.910Z,57.68
2017-10-13T11:42:39.329Z,57.19
2017-10-13T11:45:07.650Z,57.72
2017-10-13T11:47:36.726Z,57.08
2017-10-13T11:50:05.051Z,57.31
2017-10-13T11:52:33.373Z,57.54
2017-10-13T11:55:01.690Z,56.66
2017-10-13T11:57:30.007Z,56.50
2017-10-13T11:59:58.359Z,56.86
2017-10-13T12:02:26.670Z,56.92
2017-10-13T12:04:54.974Z,56.97
2017-10-13T12:07:23.322Z,57.44
2017-10-13T12:09:51.635Z,56.97
2017-10-13T12:12:19.950Z,56.88
2017-10-13T12:14:48.254Z,57.56
2017-10-13T12:17:16.570Z,58.35
2017-10-13T12:19:45.646Z,58.21
2017-10-13T12:22:13.967Z,59.06
2017-10-13T12:24:42.287Z,58.68
2017-10-13T12:27:10.607Z,59.24
2017-10-13T12:29:39.676Z,58.93
2017-10-13T12:32:07.996Z,57.21
2017-10-13T12:34:36.304Z,58.15
2017-10-13T12:37:04.617Z,58.23
2017-10-13T12:39:32.925Z,57.11
2017-10-13T12:42:01.278Z,56.12
2017-10-13T12:44:29.600Z,57.50
2017-10-13T12:46:57.907Z,58.28
2017-10-13T12:49:26.993Z,57.44
2017-10-13T12:51:55.303Z,56.57
2017-10-13T12:54:23.622Z,57.45
2017-10-13T12:56:51.925Z,59.38
2017-10-13T12:59:20.229Z,59.88
2017-10-13T13:01:48.540Z,60.01
2017-10-13T13:04:16.870Z,58.98
2017-10-13T13:06:45.189Z,58.12
2017-10-13T13:09:14.262Z,59.14
2017-10-13T13:11:42.562Z,58.92
2017-10-13T13:14:11.635Z,59.11
2017-10-13T13:16:39.934Z,59.16
2017-10-13T13:19:08.288Z,58.22
2017-10-13T13:21:36.593Z,58.31
2017-10-13T13:24:04.895Z,59.09
2017-10-13T13:26:33.212Z,59.34
2017-10-13T13:29:01.523Z,59.83
2017-10-13T13:31:29.842Z,59.83
2017-10-13T13:33:58.155Z,59.23
2017-10-13T13:36:27.250Z,58.82
2017-10-13T13:38:56.334Z,60.37
2017-10-13T13:41:24.929Z,60.21
2017-10-13T13:43:54.005Z,59.82
2017-10-13T13:46:22.337Z,59.63
2017-10-13T13:48:50.650Z,59.85
2017-10-13T13:51:18.970Z,60.22
2017-10-13T13:53:48.043Z,59.37
2017-10-13T13:56:16.368Z,59.48
2017-10-13T13:58:44.682Z,60.00
2017-10-13T14:01:13.028Z,60.27
2017-10-13T14:03:41.337Z,60.78
2017-10-13T14:06:10.418Z,60.70
2017-10-13T14:08:38.730Z,61.83
2017-10-13T14:11:07.827Z,62.28
2017-10-13T14:13:36.910Z,62.23
2017-10-13T14:16:05.216Z,62.73
2017-10-13T14:18:34.306Z,63.29
2017-10-13T14:21:03.374Z,63.21
2017-10-13T14:23:31.690Z,62.96
2017-10-13T14:26:00.017Z,62.55
2017-10-13T14:28:28.334Z,61.57
2017-10-13T14:30:57.429Z,61.53
2017-10-13T14:33:26.521Z,61.51
2017-10-13T14:35:55.590Z,61.27
2017-10-13T14:38:23.910Z,61.35
2017-10-13T14:40:52.232Z,61.51
2017-10-13T14:43:20.575Z,60.98
2017-10-13T14:45:48.885Z,61.69
2017-10-13T14:48:17.186Z,61.02
2017-10-13T14:50:45.499Z,61.67
2017-10-13T14:53:13.811Z,61.77
2017-10-13T14:55:42.142Z,63.32
2017-10-13T14:58:11.224Z,63.33
2017-10-13T15:00:39.548Z,64.21
2017-10-13T15:03:07.867Z,64.19
2017-10-13T15:05:36.195Z,64.34
2017-10-13T15:08:04.505Z,64.22
2017-10-13T15:10:32.818Z,63.70
2017-10-13T15:13:01.881Z,64.42
2017-10-13T15:15:30.223Z,64.31
2017-10-13T15:17:58.525Z,64.73
2017-10-13T15:20:26.835Z,65.06
2017-10-13T15:22:55.163Z,65.49
2017-10-13T15:25:29.002Z,65.62
2017-10-13T15:28:02.678Z,65.69
2017-10-13T15:30:36.392Z,66.12
2017-10-13T15:33:10.191Z,66.38
2017-10-13T15:38:51.688Z,66.92
2017-10-13T15:41:25.473Z,66.76
2017-10-13T15:47:06.021Z,68.14
2017-10-13T15:49:39.916Z,68.47
2017-10-13T15:52:13.659Z,69.24
2017-10-13T15:54:42.725Z,69.74
2017-10-13T15:57:11.065Z,70.27
2017-10-13T15:59:39.370Z,70.94
2017-10-13T16:02:07.684Z,71.39
2017-10-13T16:04:36.769Z,72.02
2017-10-13T16:07:05.843Z,72.70
2017-10-13T16:09:34.160Z,73.24
2017-10-13T16:12:02.483Z,73.29
2017-10-13T16:14:30.803Z,74.27
2017-10-13T16:16:59.874Z,74.45
2017-10-13T16:19:28.207Z,75.09
2017-10-13T16:21:56.507Z,75.29
2017-10-13T16:24:24.819Z,75.97
2017-10-13T16:26:53.135Z,76.58
2017-10-13T16:29:21.434Z,76.66
2017-10-13T16:31:49.759Z,76.81
2017-10-13T16:34:18.830Z,77.48
2017-10-13T16:36:47.164Z,77.77
2017-10-13T16:39:15.468Z,78.15
2017-10-13T16:41:43.782Z,78.21
2017-10-13T16:44:12.094Z,78.57
2017-10-13T16:46:40.419Z,79.57
2017-10-13T16:49:08.754Z,79.32
2017-10-13T16:51:37.058Z,79.37
2017-10-13T16:54:05.387Z,79.60
2017-10-13T16:56:33.700Z,79.66
2017-10-13T16:59:02.018Z,79.83
2017-10-13T17:01:30.325Z,79.77
2017-10-13T17:03:58.633Z,80.13
2017-10-13T17:06:26.930Z,80.26
2017-10-13T17:08:55.270Z,80.29
2017-10-13T17:11:23.575Z,79.83
2017-10-13T17:13:51.881Z,79.50
2017-10-13T17:16:20.204Z,79.16
2017-10-13T17:18:48.505Z,79.18
2017-10-13T17:21:16.829Z,79.05
2017-10-13T17:23:45.902Z,78.98
2017-10-13T17:26:14.219Z,78.83
2017-10-13T17:28:42.533Z,78.85
2017-10-13T17:31:10.873Z,78.74
2017-10-13T17:33:39.180Z,79.42
2017-10-13T17:36:07.487Z,79.75
2017-10-13T17:38:35.806Z,79.88
2017-10-13T17:41:04.111Z,80.05
2017-10-13T17:43:32.441Z,79.73
2017-10-13T17:46:01.527Z,79.72
2017-10-13T17:48:30.607Z,79.92
2017-10-13T17:50:58.930Z,79.83
2017-10-13T17:53:27.279Z,80.11
2017-10-13T17:55:56.361Z,80.08
2017-10-13T17:58:24.678Z,79.89
2017-10-13T18:00:52.999Z,79.85
2017-10-13T18:03:21.304Z,79.79
2017-10-13T18:05:50.397Z,80.35
2017-10-13T18:08:18.722Z,80.35
2017-10-13T18:10:47.055Z,80.85
2017-10-13T18:13:16.147Z,81.44
2017-10-13T18:15:44.489Z,81.64
2017-10-13T18:18:12.801Z,82.25
2017-10-13T18:20:41.116Z,82.25
2017-10-13T18:23:09.444Z,82.17
2017-10-13T18:25:37.754Z,82.82
2017-10-13T18:28:06.877Z,83.12
2017-10-13T18:30:35.191Z,83.16
2017-10-13T18:33:03.522Z,83.18
2017-10-13T18:35:31.830Z,83.64
2017-10-13T18:38:00.173Z,83.50
2017-10-13T18:40:28.492Z,83.67
2017-10-13T18:42:56.815Z,83.83
2017-10-13T18:45:25.906Z,83.92
2017-10-13T18:47:54.986Z,84.22
2017-10-13T18:50:23.306Z,83.90
2017-10-13T18:52:51.623Z,84.51
2017-10-13T18:55:19.978Z,84.61
2017-10-13T18:57:48.295Z,84.26
2017-10-13T19:00:16.612Z,84.98
2017-10-13T19:02:44.937Z,85.12
2017-10-13T19:05:13.321Z,85.38
2017-10-13T19:07:41.643Z,85.16
2017-10-13T19:10:09.968Z,85.05
2017-10-13T19:12:38.307Z,85.40
2017-10-13T19:15:06.649Z,85.34
2017-10-13T19:17:35.726Z,86.22
2017-10-13T19:20:04.059Z,86.63
2017-10-13T19:22:32.432Z,86.50
2017-10-13T19:25:00.758Z,86.69
2017-10-13T19:27:29.119Z,86.29
2017-10-13T19:29:57.434Z,86.53
2017-10-13T19:32:26.510Z,86.30
2017-10-13T19:34:54.834Z,86.29
2017-10-13T19:37:23.154Z,86.96
2017-10-13T19:39:51.470Z,87.17
2017-10-13T19:42:20.600Z,87.62
2017-10-13T19:44:48.917Z,87.21
2017-10-13T19:47:17.287Z,87.44
2017-10-13T19:49:45.690Z,87.15
2017-10-13T19:52:14.767Z,87.13
2017-10-13T19:54:43.313Z,87.08
2017-10-13T19:57:11.625Z,86.72
2017-10-13T19:59:39.984Z,86.56
2017-10-13T20:02:08.318Z,86.55
2017-10-13T20:04:36.642Z,86.59
2017-10-13T20:07:04.994Z,86.67
2017-10-13T20:09:33.422Z,86.93
2017-10-13T20:12:01.733Z,87.02
2017-10-13T20:14:30.067Z,86.87
2017-10-13T20:16:58.387Z,87.22
2017-10-13T20:19:26.706Z,86.88
2017-10-13T20:21:55.019Z,86.99
2017-10-13T20:24:24.120Z,87.11
2017-10-13T20:26:53.241Z,86.88
2017-10-13T20:29:21.553Z,86.93
2017-10-13T20:31:49.921Z,87.01
2017-10-13T20:34:18.242Z,87.24
2017-10-13T20:36:46.567Z,87.64
2017-10-13T20:39:14.894Z,87.39
2017-10-13T20:41:43.210Z,87.59
2017-10-13T20:44:11.584Z,87.62
2017-10-13T20:46:39.908Z,87.94
2017-10-13T20:49:08.213Z,88.15
2017-10-13T20:51:37.306Z,88.98
2017-10-13T20:54:05.664Z,89.60
2017-10-13T20:56:33.986Z,89.61
2017-10-13T20:59:02.298Z,89.39
2017-10-13T21:01:30.642Z,89.18
2017-10-13T21:03:58.969Z,89.26
2017-10-13T21:06:27.302Z,88.83
2017-10-13T21:08:55.605Z,88.99
2017-10-13T21:11:23.925Z,89.08
2017-10-13T21:13:53.028Z,88.73
2017-10-13T21:16:22.127Z,88.56
2017-10-13T21:18:51.210Z,88.29
2017-10-13T21:21:19.519Z,88.32
2017-10-13T21:23:47.856Z,88.39
2017-10-13T21:26:16.162Z,88.42
2017-10-13T21:28:45.253Z,88.58
2017-10-13T21:31:14.329Z,88.58
2017-10-13T21:33:42.655Z,88.50
2017-10-13T21:36:10.967Z,88.39
2017-10-13T21:38:39.309Z,88.96
2017-10-13T21:41:07.629Z,88.68
2017-10-13T21:43:35.945Z,88.60
2017-10-13T21:46:04.270Z,88.63
2017-10-13T21:48:32.607Z,89.02
2017-10-13T21:51:00.937Z,89.04
2017-10-13T21:53:29.276Z,88.67
2017-10-13T21:55:57.581Z,88.67
2017-10-13T21:58:25.910Z,88.51
2017-10-13T22:00:54.238Z,88.65
2017-10-13T22:03:22.550Z,88.58
2017-10-13T22:05:51.643Z,88.71
2017-10-13T22:08:20.720Z,88.89
2017-10-13T22:10:49.073Z,88.80
2017-10-13T22:13:17.387Z,88.83
2017-10-13T22:15:45.727Z,89.05
2017-10-13T22:18:14.047Z,88.97
2017-10-13T22:20:43.134Z,89.07
2017-10-13T22:23:11.445Z,89.02
2017-10-13T22:25:39.779Z,89.00
2017-10-13T22:28:08.099Z,88.84
2017-10-13T22:30:36.439Z,88.82
2017-10-13T22:33:04.741Z,88.98
2017-10-13T22:35:33.834Z,88.95
2017-10-13T22:38:02.922Z,88.86
2017-10-13T22:40:32.001Z,88.80
2017-10-13T22:43:00.316Z,88.96
2017-10-13T22:45:28.622Z,89.03
2017-10-13T22:47:56.941Z,88.93
2017-10-13T22:50:25.245Z,88.92
2017-10-13T22:52:53.562Z,88.78
2017-10-13T22:55:21.886Z,88.73
2017-10-13T22:57:50.982Z,88.82
2017-10-13T23:00:20.058Z,88.79
2017-10-13T23:02:48.396Z,88.69
2017-10-13T23:05:16.714Z,88.78
2017-10-13T23:07:45.050Z,88.75
2017-10-13T23:10:13.357Z,88.54
2017-10-13T23:12:41.678Z,88.80
2017-10-13T23:15:09.987Z,88.93
2017-10-13T23:17:38.314Z,89.10
2017-10-13T23:20:07.411Z,89.29
2017-10-13T23:22:36.495Z,89.44
2017-10-13T23:25:04.826Z,89.49
2017-10-13T23:27:33.142Z,89.65
2017-10-13T23:30:01.461Z,89.55
2017-10-13T23:32:29.763Z,89.52
2017-10-13T23:34:58.083Z,89.25
2017-10-13T23:37:26.403Z,89.04
2017-10-13T23:39:54.731Z,88.92
2017-10-13T23:42:23.065Z,88.69
2017-10-13T23:44:51.448Z,88.48
2017-10-13T23:47:19.775Z,88.28
2017-10-13T23:49:48.870Z,88.42
2017-10-13T23:52:17.186Z,88.39
2017-10-13T23:54:45.510Z,88.73
2017-10-13T23:57:13.835Z,88.57
2017-10-13T23:59:42.163Z,87.94
